createdAt,value
2019-05-17T00:00:40.401Z,9.40
2019-05-17T00:03:08.012Z,9.60
2019-05-17T00:05:54.416Z,8.20
2019-05-17T00:08:31.929Z,9.80
2019-05-17T00:10:51.080Z,9.60
2019-05-17T00:13:38.791Z,9.60
2019-05-17T00:16:07.199Z,2.60
2019-05-17T00:18:56.791Z,6.20
2019-05-17T00:21:24.271Z,9.00
2019-05-17T00:23:51.890Z,9.60
2019-05-17T00:26:19.383Z,8.20
2019-05-17T00:29:06.873Z,9.00
2019-05-17T00:31:36.799Z,6.40
2019-05-17T00:34:04.138Z,7.80
2019-05-17T00:36:50.492Z,8.20
2019-05-17T00:39:36.887Z,8.20
2019-05-17T00:42:06.763Z,9.20
2019-05-17T00:44:56.553Z,9.00
2019-05-17T00:47:26.416Z,7.80
2019-05-17T00:52:47.469Z,5.20
2019-05-17T00:55:17.576Z,7.40
2019-05-17T00:57:47.232Z,9.80
2019-05-17T01:00:16.871Z,9.00
2019-05-17T01:02:43.981Z,7.60
2019-05-17T01:05:11.852Z,9.40
2019-05-17T01:07:58.227Z,10.00
2019-05-17T01:10:44.618Z,8.60
2019-05-17T01:13:12.135Z,9.00
2019-05-17T01:15:39.668Z,8.20
2019-05-17T01:18:07.555Z,6.60
2019-05-17T01:20:37.162Z,7.60
2019-05-17T01:23:07.282Z,7.00
2019-05-17T01:25:53.247Z,6.60
2019-05-17T01:28:36.344Z,7.00
2019-05-17T01:30:50.103Z,6.00
2019-05-17T01:33:17.968Z,6.60
2019-05-17T01:36:06.599Z,7.00
2019-05-17T01:38:33.657Z,1.00
2019-05-17T01:41:01.152Z,4.80
2019-05-17T01:43:49.117Z,6.80
2019-05-17T01:46:17.153Z,8.20
2019-05-17T01:48:47.140Z,7.00
2019-05-17T01:51:16.971Z,7.40
2019-05-17T01:53:46.856Z,7.40
2019-05-17T01:56:14.266Z,7.00
2019-05-17T01:58:41.821Z,6.60
2019-05-17T02:01:11.253Z,7.00
2019-05-17T02:03:57.944Z,9.00
2019-05-17T02:06:27.076Z,7.80
2019-05-17T02:08:56.845Z,6.00
2019-05-17T02:17:03.823Z,4.40
2019-05-17T02:19:31.493Z,7.40
2019-05-17T02:21:58.998Z,7.80
2019-05-17T02:24:48.231Z,9.00
2019-05-17T02:27:15.850Z,7.80
2019-05-17T02:29:43.537Z,9.20
2019-05-17T02:32:12.869Z,10.80
2019-05-17T02:34:59.155Z,8.20
2019-05-17T02:42:57.658Z,8.20
2019-05-17T02:45:25.214Z,10.00
2019-05-17T02:50:25.557Z,7.60
2019-05-17T02:52:53.631Z,9.00
2019-05-17T02:55:43.342Z,3.00
2019-05-17T02:58:12.611Z,12.00
2019-05-17T03:00:39.392Z,11.20
2019-05-17T03:03:25.747Z,9.60
2019-05-17T03:05:53.790Z,9.00
2019-05-17T03:08:23.427Z,10.20
2019-05-17T03:11:05.893Z,5.60
2019-05-17T03:13:23.388Z,10.00
2019-05-17T03:16:09.433Z,12.00
2019-05-17T03:18:37.171Z,10.80
2019-05-17T03:21:23.765Z,11.20
2019-05-17T03:23:53.936Z,12.00
2019-05-17T03:26:23.231Z,10.00
2019-05-17T03:29:13.389Z,10.60
2019-05-17T03:31:44.544Z,7.80
2019-05-17T03:34:15.884Z,7.40
2019-05-17T03:36:57.384Z,7.00
2019-05-17T03:39:25.058Z,10.80
2019-05-17T03:42:13.176Z,8.20
2019-05-17T03:44:43.653Z,8.00
2019-05-17T03:50:15.811Z,9.80
2019-05-17T03:53:02.687Z,6.80
2019-05-17T03:55:33.512Z,12.80
2019-05-17T03:58:23.284Z,9.20
2019-05-17T04:03:56.508Z,11.20
2019-05-17T04:06:24.128Z,10.00
2019-05-17T04:08:54.138Z,12.60
2019-05-17T04:11:31.061Z,9.40
2019-05-17T04:14:03.216Z,10.20
2019-05-17T04:16:23.587Z,11.80
2019-05-17T04:18:49.555Z,6.80
2019-05-17T04:21:17.052Z,9.20
2019-05-17T04:26:17.285Z,8.20
2019-05-17T04:28:44.992Z,9.20
2019-05-17T04:31:13.356Z,9.00
2019-05-17T04:34:02.984Z,9.80
2019-05-17T04:36:48.059Z,7.80
2019-05-17T04:39:15.511Z,8.20
2019-05-17T04:42:03.840Z,10.20
2019-05-17T04:45:03.596Z,9.80
2019-05-17T04:50:24.427Z,8.60
2019-05-17T04:53:13.286Z,10.40
2019-05-17T04:55:43.287Z,10.20
2019-05-17T04:58:13.711Z,9.40
2019-05-17T05:00:43.054Z,8.20
2019-05-17T05:03:12.476Z,9.40
2019-05-17T05:05:42.567Z,8.60
2019-05-17T05:08:12.772Z,8.60
2019-05-17T05:10:42.492Z,9.80
2019-05-17T05:13:08.999Z,7.40
2019-05-17T05:15:36.585Z,9.40
2019-05-17T05:18:04.442Z,8.00
2019-05-17T05:20:32.645Z,6.20
2019-05-17T05:23:02.713Z,8.20
2019-05-17T05:25:32.355Z,7.40
2019-05-17T05:28:02.306Z,6.80
2019-05-17T05:30:33.949Z,9.00
2019-05-17T05:33:02.013Z,7.80
2019-05-17T05:35:31.667Z,2.20
2019-05-17T05:38:01.999Z,9.00
2019-05-17T05:40:29.050Z,8.00
2019-05-17T05:42:56.626Z,9.60
2019-05-17T05:45:24.199Z,7.40
2019-05-17T05:47:54.653Z,10.80
2019-05-17T05:50:22.265Z,7.00
2019-05-17T05:52:52.315Z,9.60
2019-05-17T05:55:23.516Z,7.40
2019-05-17T05:57:56.413Z,5.80
2019-05-17T06:00:25.822Z,10.80
2019-05-17T06:02:55.378Z,7.80
2019-05-17T06:05:22.673Z,9.60
2019-05-17T06:07:52.229Z,5.60
2019-05-17T06:10:22.180Z,3.60
2019-05-17T06:12:51.722Z,6.00
2019-05-17T06:15:19.252Z,6.80
2019-05-17T06:17:46.769Z,7.00
2019-05-17T06:20:14.283Z,6.20
2019-05-17T06:22:43.135Z,9.00
2019-05-17T06:25:15.445Z,6.00
2019-05-17T06:27:41.492Z,7.00
2019-05-17T06:30:12.620Z,5.40
2019-05-17T06:32:43.297Z,4.00
2019-05-17T06:35:12.029Z,3.00
2019-05-17T06:37:39.167Z,4.00
2019-05-17T06:40:06.629Z,4.00
2019-05-17T06:42:42.515Z,6.20
2019-05-17T06:45:12.221Z,3.00
2019-05-17T06:47:39.307Z,5.20
2019-05-17T06:50:06.790Z,6.40
2019-05-17T06:52:34.654Z,4.80
2019-05-17T06:55:05.960Z,6.00
2019-05-17T06:57:33.093Z,2.60
2019-05-17T07:00:03.182Z,6.00
2019-05-17T07:02:35.934Z,4.80
2019-05-17T07:05:07.306Z,2.60
2019-05-17T07:07:35.111Z,7.00
2019-05-17T07:10:04.592Z,2.20
2019-05-17T07:12:32.167Z,6.20
2019-05-17T07:15:02.912Z,5.20
2019-05-17T07:17:30.499Z,5.20
2019-05-17T07:19:59.698Z,4.80
2019-05-17T07:22:29.911Z,7.40
2019-05-17T07:24:59.554Z,4.40
2019-05-17T07:27:37.866Z,4.80
2019-05-17T07:29:56.092Z,5.60
2019-05-17T07:32:23.692Z,6.00
2019-05-17T07:34:51.291Z,4.00
2019-05-17T07:37:19.548Z,5.60
2019-05-17T07:40:00.553Z,6.00
2019-05-17T07:42:19.618Z,4.80
2019-05-17T07:44:49.544Z,5.20
2019-05-17T07:47:16.635Z,4.40
2019-05-17T07:49:44.221Z,3.80
2019-05-17T07:52:11.950Z,3.80
2019-05-17T07:54:39.981Z,3.60
2019-05-17T07:57:10.445Z,6.00
2019-05-17T07:59:39.713Z,1.80
2019-05-17T08:02:07.345Z,4.00
2019-05-17T08:04:34.887Z,6.40
2019-05-17T08:07:02.764Z,3.80
2019-05-17T08:09:30.251Z,4.00
2019-05-17T08:11:59.748Z,5.60
2019-05-17T08:14:30.383Z,4.00
2019-05-17T08:16:56.637Z,1.00
2019-05-17T08:19:24.196Z,6.20
2019-05-17T08:21:53.940Z,6.00
2019-05-17T08:24:21.189Z,6.00
2019-05-17T08:26:50.209Z,1.00
2019-05-17T08:29:20.263Z,5.60
2019-05-17T08:31:49.612Z,3.40
2019-05-17T08:34:22.095Z,3.60
2019-05-17T08:36:54.662Z,3.00
2019-05-17T08:39:22.174Z,3.20
2019-05-17T08:41:49.852Z,3.40
2019-05-17T08:44:20.816Z,3.60
2019-05-17T08:46:50.900Z,3.20
2019-05-17T08:49:20.233Z,4.00
2019-05-17T08:51:59.484Z,4.00
2019-05-17T08:54:27.084Z,4.40
2019-05-17T08:56:54.926Z,3.60
2019-05-17T08:59:22.434Z,4.40
2019-05-17T09:01:50.615Z,2.20
2019-05-17T09:04:26.085Z,1.00
2019-05-17T09:06:50.451Z,4.00
2019-05-17T09:09:24.197Z,4.40
2019-05-17T09:11:52.296Z,2.20
2019-05-17T09:14:29.999Z,3.00
2019-05-17T09:17:00.241Z,4.00
2019-05-17T09:19:33.051Z,1.40
2019-05-17T09:21:59.821Z,1.80
2019-05-17T09:24:27.222Z,3.00
2019-05-17T09:26:54.830Z,2.60
2019-05-17T09:29:22.431Z,0.80
2019-05-17T09:31:50.538Z,1.80
2019-05-17T09:34:20.187Z,1.40
2019-05-17T09:36:49.584Z,3.00
2019-05-17T09:39:37.221Z,2.20
2019-05-17T09:42:04.741Z,3.60
2019-05-17T09:44:32.521Z,1.00
2019-05-17T09:47:00.074Z,3.20
2019-05-17T09:49:29.824Z,0.60
2019-05-17T09:52:01.683Z,3.00
2019-05-17T09:54:41.342Z,2.60
2019-05-17T09:57:01.366Z,3.00
2019-05-17T09:59:29.811Z,2.20
2019-05-17T10:01:57.396Z,1.00
2019-05-17T10:04:30.873Z,1.00
2019-05-17T10:06:59.382Z,2.60
2019-05-17T10:09:27.100Z,1.00
2019-05-17T10:11:56.681Z,1.00
2019-05-17T10:14:28.106Z,1.80
2019-05-17T10:16:53.703Z,4.00
2019-05-17T10:19:29.028Z,3.00
2019-05-17T10:21:59.805Z,3.00
2019-05-17T10:24:37.743Z,3.00
2019-05-17T10:26:56.600Z,2.20
2019-05-17T10:29:29.859Z,2.20
2019-05-17T10:31:57.094Z,3.00
2019-05-17T10:34:24.648Z,3.00
2019-05-17T10:36:55.250Z,3.00
2019-05-17T10:39:29.885Z,0.00
2019-05-17T10:41:58.763Z,1.00
2019-05-17T10:44:42.683Z,3.20
2019-05-17T10:46:55.807Z,3.20
2019-05-17T10:49:23.380Z,3.00
2019-05-17T10:51:52.236Z,4.00
2019-05-17T10:54:24.672Z,3.00
2019-05-17T10:56:51.852Z,1.00
2019-05-17T10:59:22.829Z,1.80
2019-05-17T11:01:50.377Z,1.00
2019-05-17T11:04:19.776Z,3.00
2019-05-17T11:06:49.929Z,1.00
2019-05-17T11:09:20.449Z,2.20
2019-05-17T11:11:49.549Z,2.60
2019-05-17T11:14:20.971Z,1.00
2019-05-17T11:16:48.572Z,1.00
2019-05-17T11:19:16.251Z,3.00
2019-05-17T11:21:48.921Z,1.00
2019-05-17T11:24:16.055Z,1.80
2019-05-17T11:26:46.197Z,3.00
2019-05-17T11:29:13.953Z,2.20
2019-05-17T11:31:41.459Z,2.20
2019-05-17T11:34:10.783Z,1.80
2019-05-17T11:36:41.226Z,1.00
2019-05-17T11:39:08.783Z,1.00
2019-05-17T11:41:36.356Z,1.00
2019-05-17T11:44:04.197Z,0.00
2019-05-17T11:46:36.167Z,0.40
2019-05-17T11:49:01.623Z,1.00
2019-05-17T11:51:32.277Z,0.60
2019-05-17T11:54:00.992Z,0.00
2019-05-17T11:56:28.497Z,0.00
2019-05-17T11:58:58.819Z,0.00
2019-05-17T12:01:32.929Z,0.00
2019-05-17T12:04:00.818Z,0.00
2019-05-17T12:06:28.457Z,0.00
2019-05-17T12:08:56.280Z,0.00
2019-05-17T12:11:24.459Z,1.00
2019-05-17T12:13:52.236Z,0.00
2019-05-17T12:16:21.133Z,0.00
2019-05-17T12:18:49.218Z,0.00
2019-05-17T12:21:19.706Z,0.00
2019-05-17T12:23:47.437Z,0.00
2019-05-17T12:26:17.542Z,0.00
2019-05-17T12:28:45.313Z,0.00
2019-05-17T12:31:16.077Z,0.00
2019-05-17T12:33:45.469Z,0.00
2019-05-17T12:36:31.208Z,0.00
2019-05-17T12:38:59.705Z,3.00
2019-05-17T12:41:28.951Z,0.80
2019-05-17T12:43:56.526Z,1.40
2019-05-17T12:46:24.401Z,0.00
2019-05-17T12:48:51.944Z,1.00
2019-05-17T12:51:23.025Z,1.00
2019-05-17T12:53:50.847Z,0.80
2019-05-17T12:56:20.169Z,1.00
2019-05-17T12:58:47.706Z,0.20
2019-05-17T13:01:21.851Z,3.00
2019-05-17T13:03:49.118Z,1.00
2019-05-17T13:06:16.735Z,1.80
2019-05-17T13:09:09.313Z,1.00
2019-05-17T13:11:16.009Z,1.80
2019-05-17T13:13:43.619Z,3.00
2019-05-17T13:16:18.080Z,3.80
2019-05-17T13:18:45.326Z,1.00
2019-05-17T13:21:13.102Z,3.20
2019-05-17T13:23:45.127Z,1.00
2019-05-17T13:31:40.453Z,6.00
2019-05-17T13:45:17.863Z,6.20
2019-05-17T13:47:45.572Z,5.20
2019-05-17T13:50:31.967Z,6.40
2019-05-17T13:52:59.630Z,4.40
2019-05-17T13:55:27.194Z,6.20
2019-05-17T13:57:57.886Z,6.00
2019-05-17T14:00:25.457Z,6.00
2019-05-17T14:02:55.817Z,5.20
2019-05-17T14:05:26.503Z,7.80
2019-05-17T14:07:56.740Z,4.80
2019-05-17T14:10:27.704Z,7.00
2019-05-17T14:12:53.911Z,9.00
2019-05-17T14:15:21.820Z,9.00
2019-05-17T14:17:49.454Z,8.60
2019-05-17T14:20:23.545Z,11.60
2019-05-17T14:22:51.094Z,8.20
2019-05-17T14:25:18.960Z,9.20
2019-05-17T14:27:53.050Z,4.40
2019-05-17T14:30:21.105Z,6.60
2019-05-17T14:32:49.017Z,7.40
2019-05-17T14:35:16.824Z,6.60
2019-05-17T14:37:46.182Z,7.00
2019-05-17T14:40:16.824Z,7.00
2019-05-17T14:42:45.986Z,7.00
2019-05-17T14:45:15.409Z,9.00
2019-05-17T14:47:44.199Z,7.00
2019-05-17T14:50:13.331Z,6.60
2019-05-17T14:52:41.463Z,11.20
2019-05-17T14:55:09.018Z,7.80
2019-05-17T14:57:36.940Z,12.20
2019-05-17T15:00:04.539Z,10.00
2019-05-17T15:02:34.183Z,13.80
2019-05-17T15:05:25.196Z,8.00
2019-05-17T15:07:43.903Z,7.80
2019-05-17T15:10:11.769Z,8.20
2019-05-17T15:12:39.311Z,7.40
2019-05-17T15:15:06.947Z,7.80
2019-05-17T15:17:42.039Z,6.60
2019-05-17T15:20:09.624Z,6.20
2019-05-17T15:22:37.496Z,8.60
2019-05-17T15:25:05.051Z,6.60
2019-05-17T15:27:32.646Z,10.00
2019-05-17T15:30:00.622Z,7.00
2019-05-17T15:32:28.121Z,7.00
2019-05-17T15:34:59.189Z,7.40
2019-05-17T15:37:30.394Z,7.00
2019-05-17T15:39:57.924Z,6.00
2019-05-17T15:42:25.515Z,8.60
2019-05-17T15:44:53.527Z,8.20
2019-05-17T15:47:24.209Z,7.40
2019-05-17T15:49:51.762Z,6.00
2019-05-17T15:52:19.357Z,5.60
2019-05-17T15:54:48.700Z,6.80
2019-05-17T15:57:19.581Z,7.80
2019-05-17T15:59:47.199Z,6.20
2019-05-17T16:02:14.744Z,7.00
2019-05-17T16:04:42.625Z,7.40
2019-05-17T16:07:11.251Z,9.00
2019-05-17T16:09:38.795Z,9.80
2019-05-17T16:12:06.886Z,9.00
2019-05-17T16:14:34.474Z,6.20
2019-05-17T16:17:02.170Z,11.40
2019-05-17T16:19:30.222Z,8.60
2019-05-17T16:21:57.703Z,9.20
2019-05-17T16:24:25.307Z,6.00
2019-05-17T16:26:56.592Z,7.40
2019-05-17T16:29:26.102Z,7.00
2019-05-17T16:31:53.561Z,9.80
2019-05-17T16:34:22.724Z,10.80
2019-05-17T16:36:50.276Z,10.00
2019-05-17T16:39:18.085Z,6.00
2019-05-17T16:41:51.898Z,6.40
2019-05-17T16:44:25.282Z,9.00
2019-05-17T16:46:52.786Z,8.20
2019-05-17T16:49:20.986Z,8.20
2019-05-17T16:51:48.497Z,6.80
2019-05-17T16:54:28.556Z,9.20
2019-05-17T16:56:59.286Z,6.60
2019-05-17T16:59:28.865Z,6.00
2019-05-17T17:01:56.090Z,9.00
2019-05-17T17:04:23.978Z,7.00
2019-05-17T17:06:54.556Z,10.00
2019-05-17T17:09:22.125Z,4.80
2019-05-17T17:11:49.909Z,9.00
2019-05-17T17:14:17.530Z,7.40
2019-05-17T17:16:47.043Z,5.60
2019-05-17T17:19:18.335Z,6.40
2019-05-17T17:21:45.818Z,9.00
2019-05-17T17:24:13.281Z,9.00
2019-05-17T17:26:44.817Z,6.80
2019-05-17T17:29:14.097Z,7.20
2019-05-17T17:31:41.628Z,6.60
2019-05-17T17:34:12.676Z,9.80
2019-05-17T17:36:40.281Z,8.20
2019-05-17T17:39:07.797Z,9.00
2019-05-17T17:41:35.651Z,6.60
2019-05-17T17:44:03.167Z,8.40
2019-05-17T17:46:32.899Z,9.20
2019-05-17T17:49:06.014Z,7.40
2019-05-17T17:51:33.514Z,7.80
2019-05-17T17:54:01.519Z,8.80
2019-05-17T17:56:32.178Z,8.60
2019-05-17T17:58:59.783Z,7.00
2019-05-17T18:01:27.460Z,9.00
2019-05-17T18:03:57.655Z,6.20
2019-05-17T18:06:29.405Z,9.20
2019-05-17T18:08:57.620Z,7.00
2019-05-17T18:11:25.634Z,9.00
2019-05-17T18:13:53.256Z,9.00
2019-05-17T18:16:23.132Z,9.40
2019-05-17T18:18:52.417Z,8.20
2019-05-17T18:21:20.008Z,10.60
2019-05-17T18:23:57.179Z,8.60
2019-05-17T18:26:25.091Z,8.60
2019-05-17T18:28:54.910Z,7.80
2019-05-17T18:31:22.181Z,9.60
2019-05-17T18:33:50.065Z,10.00
2019-05-17T18:36:17.684Z,9.60
2019-05-17T18:38:45.221Z,9.00
2019-05-17T18:41:19.627Z,7.00
2019-05-17T18:43:49.968Z,6.20
2019-05-17T18:46:17.847Z,10.00
2019-05-17T18:48:45.394Z,9.00
2019-05-17T18:51:14.094Z,10.00
2019-05-17T18:53:41.713Z,10.40
2019-05-17T18:56:09.316Z,12.20
2019-05-17T18:58:39.281Z,12.00
2019-05-17T19:01:10.088Z,9.60
2019-05-17T19:03:37.935Z,9.40
2019-05-17T19:06:07.497Z,6.80
2019-05-17T19:08:37.132Z,10.40
2019-05-17T19:11:05.762Z,15.00
2019-05-17T19:13:35.561Z,13.40
2019-05-17T19:16:03.159Z,15.20
2019-05-17T19:18:33.550Z,11.20
2019-05-17T19:21:06.842Z,11.20
2019-05-17T19:23:34.373Z,12.80
2019-05-17T19:26:02.048Z,40.80
2019-05-17T19:28:30.052Z,32.60
2019-05-17T19:30:57.512Z,13.00
2019-05-17T19:33:25.123Z,10.00
2019-05-17T19:35:53.046Z,9.00
2019-05-17T19:38:20.633Z,10.00
2019-05-17T19:40:48.259Z,9.60
2019-05-17T19:43:19.110Z,10.40
2019-05-17T19:45:46.677Z,10.20
2019-05-17T19:48:14.303Z,9.20
2019-05-17T19:50:43.788Z,9.80
2019-05-17T19:53:13.212Z,9.80
2019-05-17T19:55:43.355Z,6.80
2019-05-17T19:58:18.460Z,9.00
2019-05-17T20:00:46.052Z,9.00
2019-05-17T20:03:13.819Z,9.80
2019-05-17T20:05:44.108Z,6.80
2019-05-17T20:08:11.658Z,10.40
2019-05-17T20:10:41.848Z,8.40
2019-05-17T20:13:11.406Z,8.80
2019-05-17T20:15:44.835Z,10.00
2019-05-17T20:18:17.156Z,8.60
2019-05-17T20:20:44.644Z,9.00
2019-05-17T20:23:16.369Z,10.40
2019-05-17T20:25:44.255Z,7.00
2019-05-17T20:28:11.842Z,11.60
2019-05-17T20:30:39.376Z,10.80
2019-05-17T20:33:07.387Z,10.00
2019-05-17T20:35:36.834Z,9.80
2019-05-17T20:38:07.497Z,8.20
2019-05-17T20:40:39.988Z,9.00
2019-05-17T20:43:07.152Z,9.40
2019-05-17T20:45:37.019Z,31.60
2019-05-17T20:48:07.754Z,18.00
2019-05-17T20:50:35.268Z,12.60
2019-05-17T20:53:16.532Z,17.80
2019-05-17T20:55:32.754Z,16.00
2019-05-17T20:58:00.220Z,14.80
2019-05-17T21:00:29.897Z,14.60
2019-05-17T21:03:00.469Z,15.60
2019-05-17T21:05:28.068Z,15.00
2019-05-17T21:07:55.612Z,9.00
2019-05-17T21:10:23.624Z,10.80
2019-05-17T21:12:51.188Z,9.40
2019-05-17T21:15:18.704Z,11.60
2019-05-17T21:17:46.816Z,10.80
2019-05-17T21:20:14.383Z,12.00
2019-05-17T21:22:48.962Z,11.60
2019-05-17T21:25:18.377Z,11.20
2019-05-17T21:27:46.003Z,11.20
2019-05-17T21:30:25.602Z,9.20
2019-05-17T21:32:43.325Z,9.60
2019-05-17T21:35:10.836Z,12.00
2019-05-17T21:37:40.051Z,9.60
2019-05-17T21:40:07.640Z,8.20
2019-05-17T21:42:35.196Z,11.60
2019-05-17T21:45:04.932Z,12.00
2019-05-17T21:47:32.477Z,7.00
2019-05-17T21:50:02.981Z,11.80
2019-05-17T21:52:30.918Z,13.00
2019-05-17T21:55:01.484Z,11.60
2019-05-17T21:57:29.429Z,10.80
2019-05-17T22:00:00.292Z,9.40
2019-05-17T22:02:30.706Z,11.60
2019-05-17T22:04:58.679Z,12.00
2019-05-17T22:07:26.770Z,9.40
2019-05-17T22:09:56.419Z,13.60
2019-05-17T22:12:24.103Z,12.80
2019-05-17T22:14:53.328Z,15.20
2019-05-17T22:17:20.923Z,9.40
2019-05-17T22:19:48.546Z,10.00
2019-05-17T22:22:16.623Z,10.80
2019-05-17T22:24:44.161Z,7.40
2019-05-17T22:27:11.912Z,11.60
2019-05-17T22:29:45.938Z,14.20
2019-05-17T22:32:13.565Z,15.20
2019-05-17T22:34:41.080Z,11.60
2019-05-17T22:37:26.446Z,12.00
2019-05-17T22:39:43.942Z,11.20
2019-05-17T22:42:11.600Z,13.60
2019-05-17T22:44:58.009Z,6.80
2019-05-17T22:47:44.348Z,6.40
2019-05-17T22:50:30.720Z,12.00
2019-05-17T22:52:58.291Z,10.80
2019-05-17T22:55:44.596Z,12.00
2019-05-17T23:01:05.032Z,11.20
2019-05-17T23:03:51.545Z,13.60
2019-05-17T23:06:49.801Z,7.40
2019-05-17T23:09:26.523Z,10.80
2019-05-17T23:12:25.690Z,9.80
2019-05-17T23:18:19.600Z,7.80
2019-05-17T23:20:36.844Z,10.00
2019-05-17T23:23:37.359Z,8.60
2019-05-17T23:26:00.028Z,9.80
2019-05-17T23:31:49.128Z,7.80
2019-05-17T23:34:16.696Z,7.80
2019-05-17T23:37:03.100Z,8.60
2019-05-17T23:39:30.683Z,8.20
2019-05-17T23:42:29.223Z,6.60
2019-05-17T23:44:46.727Z,7.00
2019-05-17T23:47:33.028Z,4.00
2019-05-17T23:50:02.631Z,7.00
2019-05-17T23:53:01.191Z,7.40
2019-05-17T23:55:18.553Z,9.00
